createdAt,value
2023-03-29T00:02:09.791Z,-1.19
2023-03-29T00:05:13.315Z,-1.26
2023-03-29T00:08:18.451Z,-1.32
2023-03-29T00:11:22.500Z,-1.55
2023-03-29T00:14:26.886Z,-1.82
2023-03-29T00:17:30.483Z,-1.94
2023-03-29T00:20:33.316Z,-2.21
2023-03-29T00:23:36.372Z,-2.26
2023-03-29T00:26:39.067Z,-2.29
2023-03-29T00:29:42.330Z,-2.48
2023-03-29T00:32:46.091Z,-2.59
2023-03-29T00:35:49.398Z,-2.62
2023-03-29T00:38:52.560Z,-2.78
2023-03-29T00:41:55.808Z,-2.90
2023-03-29T00:45:00.424Z,-3.02
2023-03-29T00:48:07.135Z,-3.14
2023-03-29T00:51:14.396Z,-3.12
2023-03-29T00:54:18.844Z,-3.19
2023-03-29T00:57:25.827Z,-3.21
2023-03-29T01:00:35.565Z,-3.20
2023-03-29T01:03:46.328Z,-3.35
2023-03-29T01:07:07.427Z,-3.33
2023-03-29T01:10:15.610Z,-3.32
2023-03-29T01:13:26.290Z,-3.39
2023-03-29T01:16:31.290Z,-3.47
2023-03-29T01:19:59.566Z,-3.49
2023-03-29T01:23:21.302Z,-3.56
2023-03-29T01:26:44.424Z,-3.54
2023-03-29T01:30:02.163Z,-3.57
2023-03-29T01:33:10.224Z,-3.60
2023-03-29T01:36:16.564Z,-3.65
2023-03-29T01:39:20.545Z,-3.70
2023-03-29T01:42:29.330Z,-3.69
2023-03-29T01:45:48.738Z,-3.74
2023-03-29T01:48:58.929Z,-3.70
2023-03-29T01:52:10.347Z,-3.75
2023-03-29T01:55:18.542Z,-3.75
2023-03-29T01:58:26.452Z,-3.68
2023-03-29T02:01:34.852Z,-3.67
2023-03-29T02:04:45.893Z,-3.66
2023-03-29T02:07:50.553Z,-3.71
2023-03-29T02:10:54.502Z,-3.60
2023-03-29T02:13:57.799Z,-3.58
2023-03-29T02:17:15.457Z,-3.60
2023-03-29T02:20:22.743Z,-3.67
2023-03-29T02:23:49.234Z,-3.58
2023-03-29T02:26:52.682Z,-3.56
2023-03-29T02:29:57.232Z,-3.57
2023-03-29T02:33:21.980Z,-3.56
2023-03-29T02:36:34.041Z,-3.53
2023-03-29T02:39:39.758Z,-3.47
2023-03-29T02:42:46.113Z,-3.38
2023-03-29T02:45:50.624Z,-3.31
2023-03-29T02:48:56.215Z,-3.24
2023-03-29T02:52:10.889Z,-3.18
2023-03-29T02:55:17.353Z,-3.12
2023-03-29T02:58:20.670Z,-3.16
2023-03-29T03:01:23.781Z,-3.09
2023-03-29T03:04:27.279Z,-3.11
2023-03-29T03:07:30.156Z,-3.09
2023-03-29T03:10:34.829Z,-3.09
2023-03-29T03:13:39.328Z,-3.05
2023-03-29T03:16:43.370Z,-3.01
2023-03-29T03:19:46.442Z,-2.98
2023-03-29T03:22:49.693Z,-2.95
2023-03-29T03:25:52.940Z,-2.93
2023-03-29T03:28:56.894Z,-3.03
2023-03-29T03:32:04.240Z,-3.02
2023-03-29T03:35:10.054Z,-2.84
2023-03-29T03:38:12.993Z,-2.64
2023-03-29T03:41:16.096Z,-2.62
2023-03-29T03:44:18.754Z,-2.60
2023-03-29T03:47:23.777Z,-2.57
2023-03-29T03:50:27.492Z,-2.57
2023-03-29T03:53:30.888Z,-2.58
2023-03-29T03:56:35.632Z,-2.58
2023-03-29T03:59:41.147Z,-2.62
2023-03-29T04:02:46.720Z,-2.63
2023-03-29T04:05:50.051Z,-2.71
2023-03-29T04:08:53.498Z,-2.62
2023-03-29T04:12:01.577Z,-2.62
2023-03-29T04:15:06.344Z,-2.70
2023-03-29T04:18:09.762Z,-2.61
2023-03-29T04:21:13.920Z,-2.61
2023-03-29T04:24:17.306Z,-2.62
2023-03-29T04:27:22.308Z,-2.68
2023-03-29T04:30:25.378Z,-2.57
2023-03-29T04:33:30.316Z,-2.56
2023-03-29T04:36:34.280Z,-2.52
2023-03-29T04:39:38.869Z,-2.54
2023-03-29T04:42:45.900Z,-2.54
2023-03-29T04:45:48.803Z,-2.56
2023-03-29T04:48:52.438Z,-2.63
2023-03-29T04:51:57.941Z,-2.56
2023-03-29T04:55:02.757Z,-2.57
2023-03-29T04:58:07.187Z,-2.59
2023-03-29T05:01:11.075Z,-2.62
2023-03-29T05:04:14.244Z,-2.71
2023-03-29T05:07:19.268Z,-2.63
2023-03-29T05:10:23.328Z,-2.53
2023-03-29T05:13:26.433Z,-2.21
2023-03-29T05:16:30.251Z,-1.95
2023-03-29T05:19:33.710Z,-1.70
2023-03-29T05:22:38.357Z,-1.44
2023-03-29T05:25:43.945Z,-1.25
2023-03-29T05:28:46.651Z,-0.94
2023-03-29T05:31:50.233Z,-0.87
2023-03-29T05:34:53.198Z,-0.80
2023-03-29T05:37:56.840Z,-0.53
2023-03-29T05:41:00.534Z,-0.21
2023-03-29T05:44:06.555Z,0.39
2023-03-29T05:47:09.339Z,0.72
2023-03-29T05:50:12.622Z,1.06
2023-03-29T05:53:16.500Z,1.12
2023-03-29T05:56:19.666Z,1.56
2023-03-29T05:59:23.707Z,2.12
2023-03-29T06:02:28.675Z,2.46
2023-03-29T06:05:31.813Z,2.53
2023-03-29T06:08:37.671Z,2.49
2023-03-29T06:11:41.410Z,2.57
2023-03-29T06:14:48.250Z,2.70
2023-03-29T06:17:51.663Z,2.84
2023-03-29T06:20:54.553Z,2.87
2023-03-29T06:23:58.713Z,2.90
2023-03-29T06:27:03.441Z,2.85
2023-03-29T06:30:07.316Z,2.78
2023-03-29T06:33:10.648Z,2.83
2023-03-29T06:36:16.877Z,2.90
2023-03-29T06:39:20.232Z,2.97
2023-03-29T06:42:24.367Z,3.08
2023-03-29T06:45:37.456Z,3.29
2023-03-29T06:48:41.467Z,3.88
2023-03-29T06:51:44.527Z,4.67
2023-03-29T06:54:47.704Z,5.73
2023-03-29T06:57:50.540Z,6.73
2023-03-29T07:00:53.956Z,8.09
2023-03-29T07:03:58.634Z,11.24
2023-03-29T07:07:03.586Z,14.39
2023-03-29T07:10:07.406Z,13.93
2023-03-29T07:13:13.951Z,12.58
2023-03-29T07:16:19.337Z,11.70
2023-03-29T07:19:25.277Z,10.53
2023-03-29T07:22:32.180Z,10.90
2023-03-29T07:25:36.440Z,11.20
2023-03-29T07:28:39.606Z,11.95
2023-03-29T07:31:43.776Z,12.71
2023-03-29T07:34:51.289Z,15.12
2023-03-29T07:37:55.953Z,17.62
2023-03-29T07:40:59.348Z,19.61
2023-03-29T07:44:09.114Z,20.57
2023-03-29T07:47:12.724Z,20.81
2023-03-29T07:50:17.511Z,19.13
2023-03-29T07:53:21.251Z,18.76
2023-03-29T07:56:24.951Z,15.73
2023-03-29T07:59:27.825Z,16.84
2023-03-29T08:02:31.264Z,16.99
2023-03-29T08:05:41.343Z,16.88
2023-03-29T08:08:45.287Z,14.90
2023-03-29T08:11:49.002Z,14.72
2023-03-29T08:14:52.051Z,13.44
2023-03-29T08:17:56.398Z,11.57
2023-03-29T08:21:01.485Z,10.58
2023-03-29T08:24:05.179Z,10.66
2023-03-29T08:27:08.769Z,10.63
2023-03-29T08:30:12.331Z,11.32
2023-03-29T08:33:15.739Z,11.53
2023-03-29T08:36:19.382Z,10.43
2023-03-29T08:39:22.421Z,10.90
2023-03-29T08:42:39.031Z,10.80
2023-03-29T08:46:20.623Z,10.30
2023-03-29T08:49:24.002Z,10.60
2023-03-29T08:52:43.073Z,10.37
2023-03-29T08:55:49.026Z,9.85
2023-03-29T08:58:56.073Z,10.22
2023-03-29T09:02:02.329Z,10.18
2023-03-29T09:05:21.011Z,10.42
2023-03-29T09:08:25.645Z,10.67
2023-03-29T09:11:41.859Z,10.52
2023-03-29T09:15:04.246Z,10.96
2023-03-29T09:18:26.811Z,10.64
2023-03-29T09:21:46.816Z,10.12
2023-03-29T09:24:56.414Z,9.98
2023-03-29T09:28:10.578Z,10.89
2023-03-29T09:31:29.987Z,10.81
2023-03-29T09:34:43.577Z,9.75
2023-03-29T09:37:49.221Z,9.82
2023-03-29T09:40:57.380Z,9.74
2023-03-29T09:44:05.736Z,10.36
2023-03-29T09:47:19.216Z,10.87
2023-03-29T09:50:51.395Z,11.25
2023-03-29T09:53:57.279Z,11.34
2023-03-29T09:57:01.040Z,10.35
2023-03-29T10:00:06.240Z,10.50
2023-03-29T10:03:19.911Z,10.66
2023-03-29T10:06:25.502Z,10.77
2023-03-29T10:09:30.401Z,10.72
2023-03-29T10:12:34.112Z,10.68
2023-03-29T10:15:37.110Z,10.41
2023-03-29T10:18:42.906Z,10.48
2023-03-29T10:21:49.110Z,10.27
2023-03-29T10:24:54.212Z,10.42
2023-03-29T10:28:17.602Z,10.62
2023-03-29T10:31:22.815Z,11.23
2023-03-29T10:34:28.110Z,10.45
2023-03-29T10:37:31.723Z,11.04
2023-03-29T10:40:35.710Z,11.19
2023-03-29T10:43:51.132Z,10.45
2023-03-29T10:46:53.787Z,11.18
2023-03-29T10:50:01.901Z,10.94
2023-03-29T10:53:25.459Z,11.15
2023-03-29T10:56:42.574Z,10.85
2023-03-29T11:00:08.124Z,10.77
2023-03-29T11:03:40.263Z,10.74
2023-03-29T11:06:47.743Z,10.13
2023-03-29T11:10:15.671Z,10.38
2023-03-29T11:13:42.578Z,11.09
2023-03-29T11:16:52.450Z,11.31
2023-03-29T11:20:12.585Z,11.31
2023-03-29T11:23:22.336Z,11.41
2023-03-29T11:26:36.750Z,11.05
2023-03-29T11:30:00.712Z,11.22
2023-03-29T11:33:17.823Z,11.62
2023-03-29T11:36:50.562Z,11.21
2023-03-29T11:40:21.199Z,11.38
2023-03-29T11:43:27.304Z,11.29
2023-03-29T11:46:39.594Z,11.89
2023-03-29T11:49:56.256Z,11.99
2023-03-29T11:53:14.023Z,11.82
2023-03-29T11:56:33.307Z,12.19
2023-03-29T11:59:45.070Z,12.46
2023-03-29T12:02:59.749Z,12.37
2023-03-29T12:06:15.209Z,11.66
2023-03-29T12:09:34.265Z,12.08
2023-03-29T12:13:00.384Z,12.40
2023-03-29T12:16:14.940Z,12.41
2023-03-29T12:19:25.877Z,11.90
2023-03-29T12:22:28.897Z,11.91
2023-03-29T12:25:44.583Z,12.30
2023-03-29T12:29:08.346Z,12.51
2023-03-29T12:32:39.233Z,12.63
2023-03-29T12:35:53.270Z,13.05
2023-03-29T12:38:57.969Z,13.17
2023-03-29T12:42:21.720Z,12.90
2023-03-29T12:45:34.359Z,12.55
2023-03-29T12:48:40.293Z,12.90
2023-03-29T12:51:43.904Z,12.38
2023-03-29T12:54:58.630Z,12.29
2023-03-29T12:58:08.367Z,12.20
2023-03-29T13:01:33.313Z,11.90
2023-03-29T13:04:43.783Z,12.55
2023-03-29T13:07:49.787Z,12.29
2023-03-29T13:10:56.770Z,11.93
2023-03-29T13:14:02.018Z,12.06
2023-03-29T13:17:18.515Z,11.98
2023-03-29T13:20:37.569Z,11.83
2023-03-29T13:23:43.381Z,11.80
2023-03-29T13:26:46.225Z,12.08
2023-03-29T13:30:00.557Z,11.87
2023-03-29T13:33:21.776Z,11.91
2023-03-29T13:36:31.927Z,11.95
2023-03-29T13:39:40.862Z,11.11
2023-03-29T13:42:46.749Z,11.55
2023-03-29T13:45:58.783Z,11.54
2023-03-29T13:49:22.135Z,11.32
2023-03-29T13:52:34.552Z,11.41
2023-03-29T13:55:45.643Z,11.36
2023-03-29T13:58:52.391Z,11.37
2023-03-29T14:01:58.184Z,11.13
2023-03-29T14:05:04.220Z,10.82
2023-03-29T14:08:27.138Z,10.60
2023-03-29T14:11:31.194Z,10.57
2023-03-29T14:14:33.930Z,10.46
2023-03-29T14:17:37.563Z,10.21
2023-03-29T14:20:44.566Z,10.16
2023-03-29T14:23:55.266Z,10.00
2023-03-29T14:26:57.964Z,9.73
2023-03-29T14:30:01.138Z,9.51
2023-03-29T14:33:05.267Z,9.62
2023-03-29T14:36:16.599Z,9.43
2023-03-29T14:39:22.335Z,9.37
2023-03-29T14:42:27.959Z,9.35
2023-03-29T14:45:31.000Z,9.45
2023-03-29T14:48:35.720Z,9.44
2023-03-29T14:51:40.551Z,9.65
2023-03-29T14:54:48.640Z,9.83
2023-03-29T14:57:54.784Z,9.85
2023-03-29T15:00:58.005Z,9.85
2023-03-29T15:04:09.181Z,9.90
2023-03-29T15:07:13.256Z,9.75
2023-03-29T15:10:19.314Z,9.64
2023-03-29T15:13:24.694Z,9.58
2023-03-29T15:16:30.469Z,9.47
2023-03-29T15:19:34.402Z,9.48
2023-03-29T15:22:39.052Z,9.32
2023-03-29T15:25:58.493Z,9.27
2023-03-29T15:29:13.829Z,9.24
2023-03-29T15:32:25.277Z,9.16
2023-03-29T15:35:27.983Z,9.10
2023-03-29T15:38:40.954Z,9.07
2023-03-29T15:41:48.725Z,9.08
2023-03-29T15:44:56.307Z,9.11
2023-03-29T15:48:02.041Z,9.13
2023-03-29T15:51:06.990Z,9.10
2023-03-29T15:54:09.857Z,9.07
2023-03-29T15:57:15.895Z,9.08
2023-03-29T16:00:21.101Z,8.98
2023-03-29T16:03:24.673Z,8.96
2023-03-29T16:06:27.447Z,8.88
2023-03-29T16:09:30.794Z,8.77
2023-03-29T16:12:35.738Z,8.73
2023-03-29T16:15:40.474Z,8.71
2023-03-29T16:18:43.212Z,8.69
2023-03-29T16:21:46.253Z,8.69
2023-03-29T16:24:48.909Z,8.64
2023-03-29T16:27:52.845Z,8.54
2023-03-29T16:30:55.593Z,8.59
2023-03-29T16:33:58.540Z,8.52
2023-03-29T16:37:01.248Z,8.51
2023-03-29T16:40:07.761Z,8.50
2023-03-29T16:43:19.426Z,8.44
2023-03-29T16:46:23.373Z,8.36
2023-03-29T16:49:26.396Z,8.24
2023-03-29T16:52:29.340Z,8.27
2023-03-29T16:55:32.056Z,8.12
2023-03-29T16:58:35.128Z,8.09
2023-03-29T17:01:38.720Z,8.02
2023-03-29T17:04:41.972Z,7.98
2023-03-29T17:07:45.675Z,7.90
2023-03-29T17:10:53.295Z,7.86
2023-03-29T17:13:56.506Z,7.79
2023-03-29T17:16:59.592Z,7.73
2023-03-29T17:20:02.477Z,7.71
2023-03-29T17:23:05.566Z,7.64
2023-03-29T17:26:08.533Z,7.56
2023-03-29T17:29:11.580Z,7.48
2023-03-29T17:32:14.381Z,7.53
2023-03-29T17:35:17.324Z,7.47
2023-03-29T17:38:21.196Z,7.45
2023-03-29T17:41:24.148Z,7.42
2023-03-29T17:44:27.071Z,7.34
2023-03-29T17:47:30.044Z,7.37
2023-03-29T17:50:32.729Z,7.35
2023-03-29T17:53:36.209Z,7.31
2023-03-29T17:56:38.902Z,7.26
2023-03-29T17:59:42.185Z,7.21
2023-03-29T18:02:45.469Z,7.11
2023-03-29T18:05:48.654Z,7.14
2023-03-29T18:08:53.184Z,6.98
2023-03-29T18:11:56.819Z,7.02
2023-03-29T18:14:59.543Z,7.02
2023-03-29T18:18:02.570Z,6.96
2023-03-29T18:21:07.019Z,6.89
2023-03-29T18:24:09.960Z,6.86
2023-03-29T18:27:13.123Z,6.82
2023-03-29T18:30:16.881Z,6.73
2023-03-29T18:33:19.444Z,6.79
2023-03-29T18:36:22.548Z,6.77
2023-03-29T18:39:25.821Z,6.76
2023-03-29T18:42:28.877Z,6.73
2023-03-29T18:45:31.635Z,6.60
2023-03-29T18:48:41.897Z,6.65
2023-03-29T18:51:46.333Z,6.76
2023-03-29T18:54:49.307Z,6.77
2023-03-29T18:57:52.000Z,6.63
2023-03-29T19:00:55.092Z,6.69
2023-03-29T19:03:57.857Z,6.65
2023-03-29T19:07:01.900Z,6.64
2023-03-29T19:10:05.420Z,6.58
2023-03-29T19:13:08.491Z,6.52
2023-03-29T19:16:12.173Z,6.47
2023-03-29T19:19:15.293Z,6.34
2023-03-29T19:22:17.901Z,6.38
2023-03-29T19:25:21.204Z,6.33
2023-03-29T19:28:24.778Z,6.31
2023-03-29T19:31:28.115Z,6.27
2023-03-29T19:34:31.090Z,6.14
2023-03-29T19:37:34.097Z,6.18
2023-03-29T19:40:36.737Z,6.13
2023-03-29T19:43:39.851Z,6.06
2023-03-29T19:46:43.212Z,6.05
2023-03-29T19:49:46.562Z,6.01
2023-03-29T19:52:49.295Z,5.94
2023-03-29T19:55:52.420Z,5.83
2023-03-29T19:58:55.730Z,5.82
2023-03-29T20:01:59.358Z,5.75
2023-03-29T20:05:02.788Z,5.78
2023-03-29T20:08:06.768Z,5.65
2023-03-29T20:11:11.569Z,5.63
2023-03-29T20:14:14.311Z,5.66
2023-03-29T20:17:17.176Z,5.64
2023-03-29T20:20:22.065Z,5.64
2023-03-29T20:23:25.087Z,5.60
2023-03-29T20:26:28.185Z,5.62
2023-03-29T20:29:33.256Z,5.58
2023-03-29T20:32:36.879Z,5.55
2023-03-29T20:35:39.880Z,5.51
2023-03-29T20:38:42.606Z,5.48
2023-03-29T20:41:47.783Z,5.49
2023-03-29T20:44:53.846Z,5.47
2023-03-29T20:47:57.902Z,5.44
2023-03-29T20:51:03.076Z,5.39
2023-03-29T20:54:07.665Z,5.27
2023-03-29T20:57:14.138Z,5.23
2023-03-29T21:00:19.697Z,5.28
2023-03-29T21:03:22.410Z,5.09
2023-03-29T21:06:25.483Z,5.19
2023-03-29T21:09:28.361Z,5.14
2023-03-29T21:12:31.577Z,5.12
2023-03-29T21:15:35.255Z,5.16
2023-03-29T21:18:39.352Z,5.17
2023-03-29T21:21:43.218Z,5.14
2023-03-29T21:24:46.225Z,5.11
2023-03-29T21:27:49.208Z,5.11
2023-03-29T21:30:52.251Z,5.15
2023-03-29T21:33:56.593Z,5.18
2023-03-29T21:36:59.574Z,5.08
2023-03-29T21:40:05.942Z,5.12
2023-03-29T21:43:09.301Z,5.06
2023-03-29T21:46:13.871Z,5.01
2023-03-29T21:49:16.897Z,5.02
2023-03-29T21:52:20.308Z,4.99
2023-03-29T21:55:23.245Z,4.92
2023-03-29T21:58:26.481Z,4.99
2023-03-29T22:01:29.691Z,4.99
2023-03-29T22:04:37.067Z,5.00
2023-03-29T22:07:40.142Z,5.04
2023-03-29T22:10:43.054Z,5.07
2023-03-29T22:13:46.292Z,5.06
2023-03-29T22:16:49.358Z,5.08
2023-03-29T22:19:52.425Z,5.08
2023-03-29T22:22:55.772Z,5.04
2023-03-29T22:25:58.416Z,5.04
2023-03-29T22:29:01.698Z,5.01
2023-03-29T22:32:04.934Z,5.00
2023-03-29T22:35:08.732Z,4.99
2023-03-29T22:38:11.354Z,4.93
2023-03-29T22:41:16.131Z,4.99
2023-03-29T22:44:18.729Z,4.98
2023-03-29T22:47:22.351Z,4.99
2023-03-29T22:50:25.089Z,5.01
2023-03-29T22:53:28.485Z,5.00
2023-03-29T22:56:31.075Z,4.96
2023-03-29T22:59:34.061Z,4.93
2023-03-29T23:02:37.268Z,4.93
2023-03-29T23:05:40.458Z,4.92
2023-03-29T23:08:42.982Z,4.82
2023-03-29T23:11:46.035Z,4.86
2023-03-29T23:14:48.705Z,4.75
2023-03-29T23:17:51.813Z,4.71
2023-03-29T23:20:56.640Z,4.78
2023-03-29T23:24:00.597Z,4.75
2023-03-29T23:27:04.935Z,4.65
2023-03-29T23:30:09.699Z,4.71
2023-03-29T23:33:14.532Z,4.70
2023-03-29T23:36:19.274Z,4.68
2023-03-29T23:39:23.659Z,4.68
2023-03-29T23:42:26.678Z,4.67
2023-03-29T23:45:29.561Z,4.67
2023-03-29T23:48:34.222Z,4.68
2023-03-29T23:51:37.027Z,4.65
2023-03-29T23:54:40.119Z,4.69
2023-03-29T23:57:42.981Z,4.70
